createdAt,value
2019-04-27T00:00:03.999Z,1005.22
2019-04-27T00:00:44.358Z,1005.23
2019-04-27T00:01:24.789Z,1005.23
2019-04-27T00:02:05.661Z,1005.22
2019-04-27T00:02:45.632Z,1005.24
2019-04-27T00:03:26.006Z,1005.16
2019-04-27T00:04:06.419Z,1005.19
2019-04-27T00:04:48.568Z,1005.18
2019-04-27T00:05:32.238Z,1005.16
2019-04-27T00:06:08.662Z,1005.18
2019-04-27T00:06:47.978Z,1005.18
2019-04-27T00:07:28.360Z,1005.21
2019-04-27T00:08:08.726Z,1005.21
2019-04-27T00:08:49.107Z,1005.21
2019-04-27T00:09:29.531Z,1005.23
2019-04-27T00:10:09.922Z,1005.22
2019-04-27T00:10:50.316Z,1005.19
2019-04-27T00:11:30.695Z,1005.22
2019-04-27T00:12:11.100Z,1005.26
2019-04-27T00:12:52.898Z,1005.23
2019-04-27T00:13:34.709Z,1005.2
2019-04-27T00:14:14.839Z,1005.28
2019-04-27T00:14:54.999Z,1005.25
2019-04-27T00:15:34.718Z,1005.23
2019-04-27T00:16:13.545Z,1005.22
2019-04-27T00:16:53.837Z,1005.22
2019-04-27T00:17:45.136Z,1005.25
2019-04-27T00:18:16.899Z,1005.21
2019-04-27T00:18:57.860Z,1005.21
2019-04-27T00:19:35.579Z,1005.14
2019-04-27T00:20:15.756Z,1005.18
2019-04-27T00:20:56.167Z,1005.19
2019-04-27T00:21:36.512Z,1005.15
2019-04-27T00:22:16.908Z,1005.14
2019-04-27T00:22:57.312Z,1005.17
2019-04-27T00:24:18.125Z,1005.13
2019-04-27T00:24:58.490Z,1005.13
2019-04-27T00:25:38.867Z,1005.13
2019-04-27T00:26:19.269Z,1005.14
2019-04-27T00:26:59.664Z,1005.13
2019-04-27T00:27:40.041Z,1005.1
2019-04-27T00:28:20.429Z,1005.09
2019-04-27T00:29:06.638Z,1005.13
2019-04-27T00:29:47.124Z,1005.11
2019-04-27T00:30:27.472Z,1005.11
2019-04-27T00:31:08.135Z,1005.13
2019-04-27T00:31:53.342Z,1005.12
2019-04-27T00:32:35.889Z,1005.1
2019-04-27T00:33:19.744Z,1005.07
2019-04-27T00:34:00.217Z,1005.05
2019-04-27T00:34:47.114Z,1005.05
2019-04-27T00:36:57.022Z,1005
2019-04-27T00:37:37.392Z,1004.98
2019-04-27T00:38:17.763Z,1004.99
2019-04-27T00:38:58.152Z,1004.99
2019-04-27T00:39:38.652Z,1004.98
2019-04-27T00:40:18.976Z,1005
2019-04-27T00:40:59.388Z,1005
2019-04-27T00:42:20.218Z,1005
2019-04-27T00:43:00.631Z,1004.96
2019-04-27T00:45:20.774Z,1004.99
2019-04-27T00:45:59.781Z,1004.99
2019-04-27T00:46:40.118Z,1004.93
2019-04-27T00:47:23.805Z,1004.95
2019-04-27T00:48:03.483Z,1004.97
2019-04-27T00:48:47.378Z,1004.98
2019-04-27T00:49:27.707Z,1004.95
2019-04-27T00:50:09.907Z,1004.97
2019-04-27T00:50:50.757Z,1004.98
2019-04-27T00:51:34.291Z,1005.02
2019-04-27T00:52:14.733Z,1004.92
2019-04-27T00:52:55.328Z,1005.01
2019-04-27T00:53:37.426Z,1004.98
2019-04-27T00:54:18.173Z,1004.97
2019-04-27T00:54:58.694Z,1004.97
2019-04-27T00:55:40.681Z,1004.96
2019-04-27T00:56:30.010Z,1004.95
2019-04-27T00:57:10.404Z,1004.96
2019-04-27T00:57:52.150Z,1004.95
2019-04-27T00:58:36.592Z,1004.92
2019-04-27T00:59:20.391Z,1004.93
2019-04-27T01:00:01.048Z,1004.91
2019-04-27T01:00:44.056Z,1004.92
2019-04-27T01:01:24.175Z,1004.96
2019-04-27T01:02:04.608Z,1004.94
2019-04-27T01:02:45.031Z,1004.92
2019-04-27T01:04:46.358Z,1004.91
2019-04-27T01:05:40.683Z,1004.87
2019-04-27T01:06:23.584Z,1004.89
2019-04-27T01:07:04.077Z,1004.84
2019-04-27T01:07:47.114Z,1004.82
2019-04-27T01:08:31.108Z,1004.83
2019-04-27T01:09:13.410Z,1004.83
2019-04-27T01:09:52.844Z,1004.83
2019-04-27T01:10:33.438Z,1004.81
2019-04-27T01:11:14.039Z,1004.86
2019-04-27T01:11:54.248Z,1004.8
2019-04-27T01:12:36.137Z,1004.83
2019-04-27T01:13:18.361Z,1004.78
2019-04-27T01:14:00.336Z,1004.81
2019-04-27T01:15:10.883Z,1004.75
2019-04-27T01:15:55.813Z,1004.78
2019-04-27T01:16:39.174Z,1004.71
2019-04-27T01:17:19.950Z,1004.69
2019-04-27T01:18:11.870Z,1004.71
2019-04-27T01:18:44.613Z,1004.71
2019-04-27T01:19:26.972Z,1004.69
2019-04-27T01:20:48.886Z,1004.7
2019-04-27T01:21:29.504Z,1004.64
2019-04-27T01:22:08.757Z,1004.64
2019-04-27T01:22:49.297Z,1004.62
2019-04-27T01:23:29.436Z,1004.6
2019-04-27T01:24:09.754Z,1004.59
2019-04-27T01:24:50.139Z,1004.6
2019-04-27T01:25:34.056Z,1004.62
2019-04-27T01:26:14.433Z,1004.6
2019-04-27T01:26:54.889Z,1004.58
2019-04-27T01:27:35.246Z,1004.61
2019-04-27T01:28:15.583Z,1004.54
2019-04-27T01:28:59.164Z,1004.58
2019-04-27T01:29:41.257Z,1004.55
2019-04-27T01:35:04.712Z,1004.47
2019-04-27T01:35:44.771Z,1004.45
2019-04-27T01:36:25.215Z,1004.48
2019-04-27T01:37:05.584Z,1004.41
2019-04-27T01:37:45.971Z,1004.43
2019-04-27T01:38:26.361Z,1004.45
2019-04-27T01:39:08.350Z,1004.4
2019-04-27T01:39:48.524Z,1004.45
2019-04-27T01:40:29.301Z,1004.44
2019-04-27T01:41:08.950Z,1004.41
2019-04-27T01:41:49.079Z,1004.39
2019-04-27T01:42:29.459Z,1004.4
2019-04-27T01:43:49.549Z,1004.38
2019-04-27T02:05:33.219Z,1004.28
2019-04-27T02:07:49.092Z,1004.25
2019-04-27T02:08:35.507Z,1004.27
2019-04-27T02:09:18.756Z,1004.27
2019-04-27T02:10:05.770Z,1004.27
2019-04-27T02:10:55.139Z,1004.24
2019-04-27T02:17:48.955Z,1004.17
2019-04-27T02:18:35.416Z,1004.21
2019-04-27T02:19:11.418Z,1004.22
2019-04-27T02:19:51.339Z,1004.2
2019-04-27T02:20:31.713Z,1004.17
2019-04-27T02:21:12.116Z,1004.24
2019-04-27T02:21:52.549Z,1004.2
2019-04-27T02:22:33.193Z,1004.2
2019-04-27T02:23:13.395Z,1004.18
2019-04-27T02:23:53.784Z,1004.18
2019-04-27T02:24:54.277Z,1004.2
2019-04-27T02:25:34.691Z,1004.17
2019-04-27T02:26:15.267Z,1004.21
2019-04-27T02:26:55.596Z,1004.19
2019-04-27T02:27:38.882Z,1004.19
2019-04-27T02:29:52.930Z,1004.21
2019-04-27T02:30:33.735Z,1004.17
2019-04-27T02:31:14.110Z,1004.16
2019-04-27T02:31:54.546Z,1004.11
2019-04-27T02:32:34.955Z,1004.19
2019-04-27T02:33:15.315Z,1004.14
2019-04-27T02:33:55.646Z,1004.09
2019-04-27T02:34:39.647Z,1004.08
2019-04-27T02:35:19.744Z,1004.07
2019-04-27T02:36:02.883Z,1004.1
2019-04-27T02:36:47.615Z,1004.05
2019-04-27T02:37:30.374Z,1004.06
2019-04-27T02:38:10.038Z,1004.05
2019-04-27T02:38:50.043Z,1004.06
2019-04-27T02:39:30.445Z,1004.05
2019-04-27T02:40:10.783Z,1004.04
2019-04-27T02:40:53.795Z,1004.04
2019-04-27T02:41:34.174Z,1004.04
2019-04-27T02:42:14.547Z,1004.06
2019-04-27T02:42:55.245Z,1004.03
2019-04-27T02:43:54.379Z,1004.01
2019-04-27T02:44:40.427Z,1004.01
2019-04-27T02:45:19.545Z,1004.01
2019-04-27T02:46:00.364Z,1003.97
2019-04-27T02:46:40.481Z,1003.96
2019-04-27T02:47:30.758Z,1003.97
2019-04-27T02:48:13.182Z,1003.9
2019-04-27T02:48:59.961Z,1003.94
2019-04-27T02:49:35.699Z,1003.93
2019-04-27T02:50:16.205Z,1003.9
2019-04-27T02:50:59.699Z,1003.9
2019-04-27T02:52:01.299Z,1003.91
2019-04-27T02:52:43.768Z,1003.89
2019-04-27T02:53:24.183Z,1003.83
2019-04-27T02:54:04.587Z,1003.83
2019-04-27T02:54:47.269Z,1003.82
2019-04-27T02:55:29.409Z,1003.82
2019-04-27T02:56:10.635Z,1003.79
2019-04-27T02:56:52.626Z,1003.8
2019-04-27T02:58:12.930Z,1003.81
2019-04-27T02:58:53.962Z,1003.79
2019-04-27T02:59:45.362Z,1003.78
2019-04-27T03:00:28.751Z,1003.77
2019-04-27T03:01:10.015Z,1003.75
2019-04-27T03:01:53.203Z,1003.75
2019-04-27T03:02:35.428Z,1003.74
2019-04-27T03:03:15.869Z,1003.73
2019-04-27T03:04:00.186Z,1003.77
2019-04-27T03:04:41.239Z,1003.7
2019-04-27T03:05:21.592Z,1003.72
2019-04-27T03:06:02.863Z,1003.65
2019-04-27T03:06:50.127Z,1003.71
2019-04-27T03:07:30.660Z,1003.64
2019-04-27T03:08:13.528Z,1003.66
2019-04-27T03:08:54.403Z,1003.69
2019-04-27T03:09:34.637Z,1003.57
2019-04-27T03:10:14.740Z,1003.63
2019-04-27T03:10:56.785Z,1003.59
2019-04-27T03:11:39.501Z,1003.58
2019-04-27T03:12:19.187Z,1003.57
2019-04-27T03:13:00.058Z,1003.55
2019-04-27T03:13:40.485Z,1003.57
2019-04-27T03:14:29.245Z,1003.55
2019-04-27T03:16:34.714Z,1003.56
2019-04-27T03:17:16.422Z,1003.48
2019-04-27T03:17:59.655Z,1003.52
2019-04-27T03:18:45.106Z,1003.49
2019-04-27T03:19:25.447Z,1003.5
2019-04-27T03:20:10.567Z,1003.53
2019-04-27T03:20:52.450Z,1003.47
2019-04-27T03:21:32.834Z,1003.48
2019-04-27T03:22:13.182Z,1003.45
2019-04-27T03:22:53.633Z,1003.47
2019-04-27T03:23:35.933Z,1003.43
2019-04-27T03:24:22.933Z,1003.41
2019-04-27T03:25:02.538Z,1003.45
2019-04-27T03:25:42.875Z,1003.42
2019-04-27T03:26:23.231Z,1003.39
2019-04-27T03:27:06.802Z,1003.43
2019-04-27T03:27:50.211Z,1003.42
2019-04-27T03:28:32.774Z,1003.37
2019-04-27T03:29:13.660Z,1003.38
2019-04-27T03:29:59.482Z,1003.35
2019-04-27T03:30:42.225Z,1003.36
2019-04-27T03:31:21.341Z,1003.32
2019-04-27T03:32:01.845Z,1003.33
2019-04-27T03:32:42.839Z,1003.29
2019-04-27T03:33:22.480Z,1003.3
2019-04-27T03:34:05.017Z,1003.28
2019-04-27T03:34:44.227Z,1003.29
2019-04-27T03:35:24.606Z,1003.3
2019-04-27T03:36:06.908Z,1003.31
2019-04-27T03:36:49.251Z,1003.34
2019-04-27T03:37:30.018Z,1003.32
2019-04-27T03:38:21.759Z,1003.32
2019-04-27T03:39:02.883Z,1003.32
2019-04-27T03:39:43.206Z,1003.31
2019-04-27T03:40:23.598Z,1003.3
2019-04-27T03:41:03.950Z,1003.29
2019-04-27T03:41:45.874Z,1003.27
2019-04-27T03:42:26.259Z,1003.24
2019-04-27T03:43:06.693Z,1003.25
2019-04-27T03:43:47.123Z,1003.24
2019-04-27T03:44:29.512Z,1003.21
2019-04-27T03:45:10.699Z,1003.17
2019-04-27T03:45:49.703Z,1003.15
2019-04-27T03:47:09.949Z,1003.15
2019-04-27T03:48:00.352Z,1003.13
2019-04-27T03:48:40.657Z,1003.15
2019-04-27T03:49:29.114Z,1003.1
2019-04-27T03:50:00.021Z,1003.1
2019-04-27T03:50:42.746Z,1003.08
2019-04-27T03:51:20.312Z,1003.11
2019-04-27T03:52:02.980Z,1003.07
2019-04-27T03:52:41.103Z,1003.1
2019-04-27T03:53:23.159Z,1003.09
2019-04-27T03:54:04.047Z,1003.04
2019-04-27T03:54:45.262Z,1003.03
2019-04-27T03:55:25.829Z,1003.08
2019-04-27T03:56:06.230Z,1003.1
2019-04-27T03:56:46.648Z,1003.07
2019-04-27T03:57:29.605Z,1003.06
2019-04-27T04:03:22.382Z,1003.06
2019-04-27T04:04:19.511Z,1003.08
2019-04-27T04:05:10.426Z,1003.08
2019-04-27T04:06:05.318Z,1003.12
2019-04-27T04:09:44.983Z,1003.11
2019-04-27T04:15:04.096Z,1003.04
2019-04-27T04:19:19.643Z,1003.08
2019-04-27T04:21:14.296Z,1003.08
2019-04-27T04:21:59.796Z,1003.08
2019-04-27T04:22:40.298Z,1003.06
2019-04-27T04:23:24.235Z,1003.05
2019-04-27T04:24:04.726Z,1003.06
2019-04-27T04:24:46.040Z,1003.01
2019-04-27T04:25:27.270Z,1003
2019-04-27T04:26:09.648Z,1003.02
2019-04-27T04:26:50.210Z,1003
2019-04-27T05:16:52.876Z,1002.86
2019-04-27T05:17:39.976Z,1002.87
2019-04-27T05:22:46.046Z,1002.84
2019-04-27T05:23:33.625Z,1002.84
2019-04-27T05:24:12.786Z,1002.85
2019-04-27T05:24:53.248Z,1002.83
2019-04-27T05:25:33.760Z,1002.84
2019-04-27T05:26:14.173Z,1002.87
2019-04-27T05:26:54.598Z,1002.84
2019-04-27T05:27:35.027Z,1002.9
2019-04-27T05:28:15.511Z,1002.85
2019-04-27T05:28:55.839Z,1002.85
2019-04-27T05:29:38.919Z,1002.86
2019-04-27T05:30:19.666Z,1002.88
2019-04-27T05:31:00.510Z,1002.9
2019-04-27T05:31:40.903Z,1002.85
2019-04-27T05:32:21.552Z,1002.87
2019-04-27T05:33:02.061Z,1002.88
2019-04-27T05:33:42.754Z,1002.9
2019-04-27T05:34:24.353Z,1002.89
2019-04-27T05:35:05.421Z,1002.83
2019-04-27T05:35:45.721Z,1002.85
2019-04-27T05:36:30.592Z,1002.84
2019-04-27T05:37:11.007Z,1002.83
2019-04-27T05:37:51.746Z,1002.85
2019-04-27T05:38:33.037Z,1002.86
2019-04-27T05:39:17.934Z,1002.86
2019-04-27T05:39:55.207Z,1002.82
2019-04-27T05:40:35.529Z,1002.81
2019-04-27T05:41:15.937Z,1002.81
2019-04-27T05:41:56.456Z,1002.8
2019-04-27T05:42:37.356Z,1002.81
2019-04-27T05:43:19.271Z,1002.83
2019-04-27T05:43:59.110Z,1002.82
2019-04-27T05:44:39.585Z,1002.81
2019-04-27T05:45:19.853Z,1002.76
2019-04-27T05:46:01.072Z,1002.78
2019-04-27T05:46:40.074Z,1002.73
2019-04-27T05:47:20.493Z,1002.76
2019-04-27T05:48:01.660Z,1002.77
2019-04-27T05:48:42.090Z,1002.77
2019-04-27T05:49:26.691Z,1002.78
2019-04-27T05:50:22.176Z,1002.73
2019-04-27T05:51:02.874Z,1002.76
2019-04-27T05:51:44.094Z,1002.76
2019-04-27T05:52:25.960Z,1002.71
2019-04-27T07:16:14.131Z,1002.59
2019-04-27T07:18:09.521Z,1002.54
2019-04-27T07:19:40.130Z,1002.56
2019-04-27T07:20:22.479Z,1002.53
2019-04-27T07:21:16.819Z,1002.54
2019-04-27T07:22:46.210Z,1002.5
2019-04-27T07:23:26.810Z,1002.57
2019-04-27T07:24:12.900Z,1002.55
2019-04-27T07:24:53.974Z,1002.57
2019-04-27T07:25:34.574Z,1002.54
2019-04-27T07:26:16.742Z,1002.52
2019-04-27T07:26:59.339Z,1002.55
2019-04-27T07:27:39.446Z,1002.52
2019-04-27T07:28:19.920Z,1002.49
2019-04-27T07:34:47.433Z,1002.53
2019-04-27T07:35:42.803Z,1002.53
2019-04-27T07:38:31.139Z,1002.55
2019-04-27T07:39:29.325Z,1002.54
2019-04-27T07:40:33.341Z,1002.56
2019-04-27T07:41:36.293Z,1002.54
2019-04-27T07:42:37.169Z,1002.55
2019-04-27T07:43:34.723Z,1002.53
2019-04-27T07:44:32.060Z,1002.55
2019-04-27T07:45:26.682Z,1002.52
2019-04-27T07:47:49.512Z,1002.55
2019-04-27T07:48:37.318Z,1002.51
2019-04-27T07:49:19.052Z,1002.51
2019-04-27T07:50:09.651Z,1002.49
2019-04-27T07:50:49.895Z,1002.48
2019-04-27T07:51:50.732Z,1002.48
2019-04-27T07:52:29.266Z,1002.53
2019-04-27T07:53:14.681Z,1002.46
2019-04-27T07:54:02.162Z,1002.43
2019-04-27T07:54:42.553Z,1002.48
2019-04-27T07:55:23.470Z,1002.44
2019-04-27T07:56:06.024Z,1002.46
2019-04-27T07:56:53.442Z,1002.45
2019-04-27T07:57:49.429Z,1002.42
2019-04-27T07:58:29.569Z,1002.42
2019-04-27T07:59:16.255Z,1002.49
2019-04-27T08:00:05.972Z,1002.45
2019-04-27T08:00:51.603Z,1002.44
2019-04-27T08:02:46.276Z,1002.43
2019-04-27T08:04:21.501Z,1002.45
2019-04-27T08:05:24.682Z,1002.34
2019-04-27T08:09:44.665Z,1002.33
2019-04-27T08:18:00.296Z,1002.3
2019-04-27T08:22:34.346Z,1002.25
2019-04-27T08:23:29.444Z,1002.23
2019-04-27T08:24:29.438Z,1002.26
2019-04-27T08:25:32.476Z,1002.24
2019-04-27T08:26:25.920Z,1002.26
2019-04-27T08:27:29.418Z,1002.26
2019-04-27T08:28:28.341Z,1002.23
2019-04-27T08:29:22.181Z,1002.27
2019-04-27T08:32:16.286Z,1002.16
2019-04-27T08:36:25.479Z,1002.13
2019-04-27T08:37:20.153Z,1002.1
2019-04-27T08:38:18.972Z,1002.06
2019-04-27T08:40:59.505Z,1002.06
2019-04-27T08:41:55.084Z,1002.06
2019-04-27T08:42:55.638Z,1002.08
2019-04-27T08:43:51.462Z,1002.14
2019-04-27T08:44:46.967Z,1002.09
2019-04-27T08:45:42.575Z,1002.17
2019-04-27T08:46:42.164Z,1002.12
2019-04-27T08:49:26.271Z,1002.12
2019-04-27T08:50:21.678Z,1002.13
2019-04-27T08:51:17.164Z,1002.13
2019-04-27T08:56:20.217Z,1002.05
2019-04-27T08:57:43.700Z,1002.01
2019-04-27T09:01:35.833Z,1001.99
2019-04-27T09:02:41.384Z,1002.02
2019-04-27T09:03:23.242Z,1001.98
2019-04-27T09:04:20.727Z,1001.98
2019-04-27T09:05:26.293Z,1002.02
2019-04-27T09:06:19.380Z,1002.03
2019-04-27T09:07:13.267Z,1001.97
2019-04-27T09:08:10.466Z,1001.99
2019-04-27T09:09:03.117Z,1001.97
2019-04-27T09:09:56.700Z,1001.99
2019-04-27T09:10:49.709Z,1001.98
2019-04-27T09:11:49.322Z,1002.01
2019-04-27T09:12:53.190Z,1002.02
2019-04-27T09:13:48.313Z,1002.11
2019-04-27T09:15:07.122Z,1002.32
2019-04-27T09:16:36.753Z,1002.47
2019-04-27T09:17:59.779Z,1002.48
2019-04-27T09:21:39.532Z,1002.8
2019-04-27T09:22:20.712Z,1002.74
2019-04-27T09:23:00.117Z,1002.73
2019-04-27T09:23:40.680Z,1002.65
2019-04-27T09:24:22.083Z,1002.65
2019-04-27T09:25:02.437Z,1002.8
2019-04-27T09:26:23.451Z,1002.68
2019-04-27T09:27:03.852Z,1002.78
2019-04-27T09:27:44.331Z,1002.72
2019-04-27T09:28:25.076Z,1002.7
2019-04-27T09:29:06.462Z,1002.71
2019-04-27T09:29:46.665Z,1002.71
2019-04-27T09:30:27.016Z,1002.72
2019-04-27T09:31:10.010Z,1002.7
2019-04-27T09:31:50.780Z,1002.68
2019-04-27T09:32:31.299Z,1002.71
2019-04-27T09:33:52.598Z,1002.66
2019-04-27T09:34:32.933Z,1002.64
2019-04-27T09:35:14.013Z,1002.67
2019-04-27T09:35:54.424Z,1002.68
2019-04-27T09:36:34.839Z,1002.67
2019-04-27T09:37:17.441Z,1002.7
2019-04-27T09:37:58.695Z,1002.75
2019-04-27T09:38:38.633Z,1002.65
2019-04-27T09:39:18.907Z,1002.69
2019-04-27T09:39:59.333Z,1002.74
2019-04-27T09:40:39.968Z,1002.72
2019-04-27T09:41:20.270Z,1002.71
2019-04-27T09:42:00.670Z,1002.73
2019-04-27T09:42:41.320Z,1002.74
2019-04-27T09:44:02.974Z,1002.81
2019-04-27T09:44:43.409Z,1002.72
2019-04-27T09:45:23.798Z,1002.69
2019-04-27T09:46:05.785Z,1002.77
2019-04-27T09:46:44.659Z,1002.74
2019-04-27T09:47:26.634Z,1002.69
2019-04-27T09:48:06.626Z,1002.72
2019-04-27T09:48:46.580Z,1002.75
2019-04-27T09:49:26.652Z,1002.79
2019-04-27T09:50:07.293Z,1002.72
2019-04-27T09:50:48.333Z,1002.79
2019-04-27T09:51:29.305Z,1002.76
2019-04-27T09:52:09.713Z,1002.78
2019-04-27T09:52:50.118Z,1002.77
2019-04-27T09:54:11.411Z,1002.82
2019-04-27T09:54:52.143Z,1002.84
2019-04-27T09:55:32.546Z,1002.85
2019-04-27T09:56:12.905Z,1002.81
2019-04-27T09:56:55.907Z,1002.79
2019-04-27T09:57:34.341Z,1002.85
2019-04-27T09:58:15.959Z,1002.74
2019-04-27T09:59:37.719Z,1002.75
2019-04-27T10:00:18.225Z,1002.8
2019-04-27T10:00:58.012Z,1002.72
2019-04-27T10:01:40.105Z,1002.74
2019-04-27T10:02:20.910Z,1002.83
2019-04-27T10:03:03.941Z,1002.74
2019-04-27T10:03:46.787Z,1002.79
2019-04-27T10:04:27.533Z,1002.76
2019-04-27T10:05:08.011Z,1002.72
2019-04-27T10:05:50.442Z,1002.71
2019-04-27T10:06:31.085Z,1002.75
2019-04-27T10:07:11.854Z,1002.79
2019-04-27T10:10:37.250Z,1002.72
2019-04-27T10:11:17.227Z,1002.64
2019-04-27T10:11:59.648Z,1002.7
2019-04-27T10:12:40.247Z,1002.66
2019-04-27T10:13:21.757Z,1002.61
2019-04-27T10:14:01.942Z,1002.74
2019-04-27T10:14:42.450Z,1002.76
2019-04-27T10:15:26.862Z,1002.73
2019-04-27T10:16:09.496Z,1002.76
2019-04-27T10:16:51.498Z,1002.75
2019-04-27T10:17:33.502Z,1002.74
2019-04-27T10:18:16.121Z,1002.77
2019-04-27T10:18:55.983Z,1002.74
2019-04-27T10:19:38.039Z,1002.7
2019-04-27T10:20:19.987Z,1002.68
2019-04-27T10:21:02.154Z,1002.65
2019-04-27T10:21:40.947Z,1002.66
2019-04-27T10:22:21.651Z,1002.66
2019-04-27T10:23:01.889Z,1002.67
2019-04-27T10:23:42.841Z,1002.76
2019-04-27T10:24:24.151Z,1002.71
2019-04-27T10:25:04.060Z,1002.69
2019-04-27T10:25:45.803Z,1002.7
2019-04-27T10:26:26.022Z,1002.7
2019-04-27T10:27:07.815Z,1002.72
2019-04-27T10:27:47.227Z,1002.63
2019-04-27T11:11:51.822Z,1002.65
2019-04-27T11:12:32.291Z,1002.74
2019-04-27T11:13:12.744Z,1002.7
2019-04-27T11:13:53.146Z,1002.74
2019-04-27T11:14:34.261Z,1002.77
2019-04-27T11:15:16.457Z,1002.82
2019-04-27T11:15:56.173Z,1002.88
2019-04-27T11:16:37.710Z,1002.85
2019-04-27T11:17:17.442Z,1002.86
2019-04-27T11:17:58.558Z,1002.91
2019-04-27T11:18:41.477Z,1002.92
2019-04-27T11:19:22.320Z,1002.91
2019-04-27T11:20:03.745Z,1002.97
2019-04-27T11:20:44.432Z,1003.02
2019-04-27T11:21:26.165Z,1003
2019-04-27T11:22:07.411Z,1003.04
2019-04-27T11:22:46.977Z,1003
2019-04-27T11:23:29.288Z,1002.99
2019-04-27T11:24:09.674Z,1003.04
2019-04-27T11:24:50.144Z,1003.01
2019-04-27T11:25:30.492Z,1003.08
2019-04-27T11:26:11.005Z,1003.05
2019-04-27T11:26:51.312Z,1003.11
2019-04-27T11:27:31.773Z,1003.17
2019-04-27T11:28:12.144Z,1003.13
2019-04-27T11:28:52.598Z,1003.12
2019-04-27T11:29:33.105Z,1003.11
2019-04-27T11:30:13.509Z,1003.16
2019-04-27T11:30:54.432Z,1003.16
2019-04-27T11:31:36.173Z,1003.17
2019-04-27T11:32:15.867Z,1003.16
2019-04-27T11:32:58.824Z,1003.11
2019-04-27T11:33:36.328Z,1003.15
2019-04-27T11:34:16.145Z,1003.12
2019-04-27T11:34:56.598Z,1003.08
2019-04-27T11:35:37.035Z,1002.97
2019-04-27T11:36:17.671Z,1003.12
2019-04-27T11:36:58.058Z,1002.86
2019-04-27T11:37:38.471Z,1003
2019-04-27T11:38:18.975Z,1002.88
2019-04-27T11:38:59.442Z,1002.89
2019-04-27T11:39:39.818Z,1002.91
2019-04-27T11:40:20.353Z,1002.93
2019-04-27T11:41:00.887Z,1002.97
2019-04-27T11:41:42.915Z,1002.98
2019-04-27T11:42:23.338Z,1003.08
2019-04-27T11:43:03.729Z,1003.13
2019-04-27T11:43:44.209Z,1003
2019-04-27T11:44:25.741Z,1003.12
2019-04-27T11:45:06.550Z,1003.19
2019-04-27T11:45:45.799Z,1003.15
2019-04-27T11:46:26.665Z,1003.22
2019-04-27T11:47:06.152Z,1003.18
2019-04-27T11:47:46.521Z,1003.24
2019-04-27T11:48:26.965Z,1003.23
2019-04-27T11:49:07.319Z,1003.21
2019-04-27T11:49:47.733Z,1003.13
2019-04-27T11:50:28.150Z,1002.99
2019-04-27T11:51:10.949Z,1003.02
2019-04-27T11:51:49.020Z,1002.97
2019-04-27T11:52:29.485Z,1002.88
2019-04-27T11:53:19.638Z,1002.92
2019-04-27T11:53:50.380Z,1002.86
2019-04-27T11:54:30.742Z,1002.81
2019-04-27T11:55:12.283Z,1002.84
2019-04-27T11:55:52.622Z,1002.89
2019-04-27T11:56:32.975Z,1002.77
2019-04-27T11:57:13.397Z,1002.88
2019-04-27T11:57:55.796Z,1002.87
2019-04-27T11:58:35.021Z,1002.89
2019-04-27T11:59:15.949Z,1002.9
2019-04-27T11:59:56.258Z,1002.88
2019-04-27T12:00:36.428Z,1002.81
2019-04-27T12:01:16.096Z,1002.79
2019-04-27T12:01:56.787Z,1002.91
2019-04-27T12:02:37.028Z,1002.83
2019-04-27T12:03:17.561Z,1002.87
2019-04-27T12:03:57.978Z,1002.82
2019-04-27T12:04:38.371Z,1002.82
2019-04-27T12:05:18.714Z,1002.82
2019-04-27T12:06:00.263Z,1002.85
2019-04-27T12:06:39.757Z,1002.82
2019-04-27T12:07:20.067Z,1002.85
2019-04-27T12:08:00.547Z,1002.86
2019-04-27T12:08:40.883Z,1002.88
2019-04-27T12:09:21.990Z,1002.86
2019-04-27T12:10:02.509Z,1002.89
2019-04-27T12:10:42.920Z,1002.87
2019-04-27T12:11:25.944Z,1002.92
2019-04-27T12:12:13.429Z,1002.98
2019-04-27T12:12:46.314Z,1002.98
2019-04-27T12:13:26.355Z,1002.97
2019-04-27T12:14:06.737Z,1003.03
2019-04-27T12:14:47.450Z,1003.03
2019-04-27T12:15:27.653Z,1002.97
2019-04-27T12:16:09.619Z,1003.02
2019-04-27T12:16:50.136Z,1003.02
2019-04-27T12:23:32.933Z,1002.86
2019-04-27T12:24:02.066Z,1002.89
2019-04-27T12:24:45.730Z,1002.88
2019-04-27T12:25:24.972Z,1002.84
2019-04-27T12:26:06.352Z,1002.83
2019-04-27T12:26:47.050Z,1002.82
2019-04-27T12:27:29.338Z,1002.8
2019-04-27T12:28:09.749Z,1002.83
2019-04-27T12:28:50.445Z,1002.79
2019-04-27T12:29:31.002Z,1002.77
2019-04-27T12:30:11.415Z,1002.76
2019-04-27T12:30:51.861Z,1002.71
2019-04-27T12:31:35.717Z,1002.72
2019-04-27T12:32:25.620Z,1002.74
2019-04-27T12:33:04.475Z,1002.75
2019-04-27T12:33:46.064Z,1002.8
2019-04-27T12:34:27.900Z,1002.78
2019-04-27T12:35:10.148Z,1002.81
2019-04-27T12:35:50.562Z,1002.74
2019-04-27T12:36:30.963Z,1002.78
2019-04-27T12:37:11.835Z,1002.75
2019-04-27T12:37:52.302Z,1002.76
2019-04-27T12:38:33.801Z,1002.69
2019-04-27T12:39:15.615Z,1002.69
2019-04-27T12:39:57.578Z,1002.7
2019-04-27T12:40:36.634Z,1002.68
2019-04-27T12:41:15.678Z,1002.69
2019-04-27T12:41:57.112Z,1002.67
2019-04-27T12:42:37.504Z,1002.68
2019-04-27T12:43:17.906Z,1002.7
2019-04-27T12:43:59.311Z,1002.68
2019-04-27T12:44:42.424Z,1002.62
2019-04-27T12:45:22.469Z,1002.72
2019-04-27T12:46:05.750Z,1002.69
2019-04-27T12:46:44.540Z,1002.7
2019-04-27T12:47:26.283Z,1002.75
2019-04-27T12:48:05.339Z,1002.68
2019-04-27T12:48:46.009Z,1002.64
2019-04-27T12:49:26.741Z,1002.57
2019-04-27T12:50:07.245Z,1002.64
2019-04-27T12:51:30.230Z,1002.66
2019-04-27T12:52:10.637Z,1002.73
2019-04-27T12:52:52.870Z,1002.74
2019-04-27T12:54:16.125Z,1002.73
2019-04-27T12:54:57.029Z,1002.65
2019-04-27T12:55:38.440Z,1002.63
2019-04-27T12:56:20.016Z,1002.56
2019-04-27T12:57:01.235Z,1002.61
2019-04-27T12:57:43.204Z,1002.63
2019-04-27T12:58:26.354Z,1002.5
2019-04-27T12:59:07.822Z,1002.53
2019-04-27T12:59:48.358Z,1002.58
2019-04-27T13:00:28.899Z,1002.68
2019-04-27T13:02:28.576Z,1002.57
2019-04-27T13:03:10.935Z,1002.6
2019-04-27T13:03:51.417Z,1002.63
2019-04-27T13:04:31.751Z,1002.51
2019-04-27T13:05:12.147Z,1002.57
2019-04-27T13:05:52.652Z,1002.54
2019-04-27T13:06:35.766Z,1002.56
2019-04-27T13:07:55.506Z,1002.47
2019-04-27T13:08:36.023Z,1002.46
2019-04-27T13:09:17.402Z,1002.42
2019-04-27T13:09:57.660Z,1002.49
2019-04-27T13:10:41.637Z,1002.49
2019-04-27T13:11:22.960Z,1002.52
2019-04-27T13:12:02.552Z,1002.48
2019-04-27T13:12:43.044Z,1002.44
2019-04-27T13:13:24.227Z,1002.48
2019-04-27T13:14:06.164Z,1002.45
2019-04-27T13:14:45.705Z,1002.46
2019-04-27T13:15:26.451Z,1002.45
2019-04-27T13:16:06.726Z,1002.37
2019-04-27T13:16:47.552Z,1002.37
2019-04-27T13:17:27.463Z,1002.42
2019-04-27T13:18:07.979Z,1002.45
2019-04-27T13:18:49.299Z,1002.45
2019-04-27T13:19:29.704Z,1002.5
2019-04-27T13:20:52.832Z,1002.47
2019-04-27T13:21:33.429Z,1002.5
2019-04-27T13:22:13.863Z,1002.44
2019-04-27T13:22:55.151Z,1002.46
2019-04-27T13:23:37.118Z,1002.31
2019-04-27T13:24:16.861Z,1002.4
2019-04-27T13:24:57.286Z,1002.49
2019-04-27T13:25:38.498Z,1002.41
2019-04-27T13:26:19.251Z,1002.36
2019-04-27T13:26:59.588Z,1002.38
2019-04-27T13:27:40.051Z,1002.3
2019-04-27T13:28:20.707Z,1002.41
2019-04-27T13:29:00.984Z,1002.39
2019-04-27T13:29:41.855Z,1002.45
2019-04-27T13:30:21.931Z,1002.47
2019-04-27T13:31:02.719Z,1002.42
2019-04-27T13:31:43.921Z,1002.48
2019-04-27T13:32:26.402Z,1002.4
2019-04-27T13:33:04.583Z,1002.3
2019-04-27T13:33:49.895Z,1002.41
2019-04-27T13:34:30.262Z,1002.37
2019-04-27T13:35:11.540Z,1002.33
2019-04-27T13:35:52.226Z,1002.3
2019-04-27T13:36:33.286Z,1002.37
2019-04-27T13:37:13.631Z,1002.43
2019-04-27T13:37:55.795Z,1002.3
2019-04-27T13:38:36.067Z,1002.21
2019-04-27T13:39:15.922Z,1002.32
2019-04-27T13:40:04.602Z,1002.37
2019-04-27T13:40:37.217Z,1002.38
2019-04-27T13:41:27.696Z,1002.38
2019-04-27T13:41:58.701Z,1002.39
2019-04-27T13:42:39.234Z,1002.39
2019-04-27T13:43:20.234Z,1002.48
2019-04-27T13:44:42.784Z,1002.48
2019-04-27T13:45:26.611Z,1002.64
2019-04-27T13:46:08.102Z,1002.53
2019-04-27T13:46:48.386Z,1002.69